createdAt,value
2023-01-13T00:12:43.507Z,7.40
2023-01-13T00:32:43.506Z,7.46
2023-01-13T00:52:43.525Z,7.49
2023-01-13T01:12:43.509Z,7.49
2023-01-13T01:32:43.524Z,7.65
2023-01-13T01:52:43.446Z,7.86
2023-01-13T02:12:43.460Z,7.78
2023-01-13T02:32:43.363Z,7.66
2023-01-13T02:52:43.389Z,7.53
2023-01-13T03:12:43.386Z,7.48
2023-01-13T03:32:43.402Z,7.85
2023-01-13T03:52:43.413Z,8.11
2023-01-13T04:12:43.319Z,8.11
2023-01-13T04:32:43.331Z,8.36
2023-01-13T04:52:43.342Z,8.39
2023-01-13T05:12:43.351Z,8.34
2023-01-13T05:32:43.253Z,8.37
2023-01-13T05:52:43.279Z,8.36
2023-01-13T06:12:43.285Z,8.25
2023-01-13T06:32:43.301Z,8.31
2023-01-13T06:52:43.308Z,8.41
2023-01-13T07:12:43.211Z,8.34
2023-01-13T07:32:43.215Z,8.27
2023-01-13T07:52:43.233Z,8.33
2023-01-13T08:12:43.239Z,8.27
2023-01-13T08:32:43.143Z,8.11
2023-01-13T08:52:43.146Z,8.34
2023-01-13T09:12:43.164Z,8.47
2023-01-13T09:32:43.171Z,8.73
2023-01-13T09:52:43.196Z,8.90
2023-01-13T10:12:43.088Z,8.94
2023-01-13T10:32:43.112Z,9.13
2023-01-13T10:52:43.106Z,9.40
2023-01-13T11:12:43.121Z,9.29
2023-01-13T11:32:43.028Z,8.73
2023-01-13T11:52:43.030Z,8.44
2023-01-13T12:12:43.039Z,8.74
2023-01-13T12:32:43.048Z,8.01
2023-01-13T12:52:43.059Z,8.10
2023-01-13T13:12:43.079Z,8.13
2023-01-13T13:32:42.979Z,8.08
2023-01-13T13:52:42.985Z,8.87
2023-01-13T14:12:42.903Z,5.89
2023-01-13T14:32:42.935Z,5.07
2023-01-13T14:52:42.942Z,4.90
2023-01-13T15:12:42.904Z,4.96
2023-01-13T15:32:42.814Z,4.92
2023-01-13T15:52:42.824Z,4.59
2023-01-13T16:12:42.908Z,4.55
2023-01-13T16:32:42.939Z,4.57
2023-01-13T16:52:43.064Z,4.56
2023-01-13T17:12:42.893Z,5.14
2023-01-13T17:32:42.879Z,5.58
2023-01-13T17:52:42.915Z,5.66
2023-01-13T18:12:42.905Z,5.03
2023-01-13T18:32:42.984Z,4.64
2023-01-13T18:52:42.838Z,4.81
2023-01-13T19:12:42.845Z,5.85
2023-01-13T19:32:42.880Z,5.84
2023-01-13T19:52:42.877Z,5.45
2023-01-13T20:12:42.890Z,5.52
2023-01-13T20:32:42.829Z,5.74
2023-01-13T20:52:42.811Z,5.63
2023-01-13T21:12:42.819Z,5.28
2023-01-13T21:32:42.838Z,5.19
2023-01-13T21:52:42.845Z,4.89
2023-01-13T22:12:42.856Z,4.89
2023-01-13T22:32:42.819Z,4.68
2023-01-13T22:52:42.765Z,4.44
2023-01-13T23:12:42.773Z,4.52
2023-01-13T23:32:42.782Z,4.38
2023-01-13T23:52:42.781Z,4.27
